sensor_id;sensor_type;location;lat;lon;timestamp;P1;durP1;ratioP1;P2;durP2;ratioP2
8572;SDS011;4324;42.012;24.872;2024-02-15T00:01:41;8.77;;;4.50;;
8572;SDS011;4324;42.012;24.872;2024-02-15T00:04:09;4.30;;;3.90;;
8572;SDS011;4324;42.012;24.872;2024-02-15T00:06:36;4.70;;;4.17;;
8572;SDS011;4324;42.012;24.872;2024-02-15T00:09:04;5.07;;;4.57;;
8572;SDS011;4324;42.012;24.872;2024-02-15T00:11:31;5.70;;;3.87;;
8572;SDS011;4324;42.012;24.872;2024-02-15T00:14:00;5.60;;;4.63;;
8572;SDS011;4324;42.012;24.872;2024-02-15T00:16:27;5.03;;;4.53;;
8572;SDS011;4324;42.012;24.872;2024-02-15T00:18:55;5.33;;;4.17;;
8572;SDS011;4324;42.012;24.872;2024-02-15T00:21:22;4.20;;;3.20;;
8572;SDS011;4324;42.012;24.872;2024-02-15T00:23:49;4.97;;;4.47;;
8572;SDS011;4324;42.012;24.872;2024-02-15T00:26:21;5.03;;;4.53;;
8572;SDS011;4324;42.012;24.872;2024-02-15T00:28:48;4.93;;;3.90;;
8572;SDS011;4324;42.012;24.872;2024-02-15T00:31:17;4.63;;;4.13;;
8572;SDS011;4324;42.012;24.872;2024-02-15T00:33:44;4.80;;;4.30;;
8572;SDS011;4324;42.012;24.872;2024-02-15T00:36:12;4.83;;;4.23;;
8572;SDS011;4324;42.012;24.872;2024-02-15T00:38:39;4.33;;;3.80;;
8572;SDS011;4324;42.012;24.872;2024-02-15T00:41:08;4.27;;;3.70;;
8572;SDS011;4324;42.012;24.872;2024-02-15T00:43:36;4.97;;;4.53;;
8572;SDS011;4324;42.012;24.872;2024-02-15T00:46:03;4.63;;;4.23;;
8572;SDS011;4324;42.012;24.872;2024-02-15T00:48:32;4.63;;;4.23;;
8572;SDS011;4324;42.012;24.872;2024-02-15T00:50:59;4.73;;;4.23;;
8572;SDS011;4324;42.012;24.872;2024-02-15T00:53:26;4.67;;;4.20;;
8572;SDS011;4324;42.012;24.872;2024-02-15T00:55:53;4.27;;;3.70;;
8572;SDS011;4324;42.012;24.872;2024-02-15T00:58:21;5.00;;;4.53;;
8572;SDS011;4324;42.012;24.872;2024-02-15T01:00:49;4.20;;;3.80;;
8572;SDS011;4324;42.012;24.872;2024-02-15T01:03:17;4.57;;;4.17;;
8572;SDS011;4324;42.012;24.872;2024-02-15T01:05:46;4.70;;;4.30;;
8572;SDS011;4324;42.012;24.872;2024-02-15T01:08:13;4.47;;;4.07;;
8572;SDS011;4324;42.012;24.872;2024-02-15T01:10:40;4.70;;;4.13;;
8572;SDS011;4324;42.012;24.872;2024-02-15T01:13:08;4.03;;;3.60;;
8572;SDS011;4324;42.012;24.872;2024-02-15T01:15:35;4.30;;;3.90;;
8572;SDS011;4324;42.012;24.872;2024-02-15T01:18:05;4.47;;;4.07;;
8572;SDS011;4324;42.012;24.872;2024-02-15T01:20:32;4.40;;;3.80;;
8572;SDS011;4324;42.012;24.872;2024-02-15T01:23:01;4.20;;;3.80;;
8572;SDS011;4324;42.012;24.872;2024-02-15T01:25:30;4.17;;;3.77;;
8572;SDS011;4324;42.012;24.872;2024-02-15T01:27:57;6.83;;;4.27;;
8572;SDS011;4324;42.012;24.872;2024-02-15T01:30:27;5.10;;;4.20;;
8572;SDS011;4324;42.012;24.872;2024-02-15T01:32:55;4.47;;;4.07;;
8572;SDS011;4324;42.012;24.872;2024-02-15T01:35:22;4.23;;;3.83;;
8572;SDS011;4324;42.012;24.872;2024-02-15T01:37:49;5.67;;;4.30;;
8572;SDS011;4324;42.012;24.872;2024-02-15T01:40:19;4.80;;;4.40;;
8572;SDS011;4324;42.012;24.872;2024-02-15T01:42:46;4.90;;;4.43;;
8572;SDS011;4324;42.012;24.872;2024-02-15T01:45:15;4.90;;;4.40;;
8572;SDS011;4324;42.012;24.872;2024-02-15T01:47:42;5.47;;;3.80;;
8572;SDS011;4324;42.012;24.872;2024-02-15T01:50:10;4.17;;;3.77;;
8572;SDS011;4324;42.012;24.872;2024-02-15T01:52:38;4.57;;;3.80;;
8572;SDS011;4324;42.012;24.872;2024-02-15T01:55:07;2.23;;;2.03;;
8572;SDS011;4324;42.012;24.872;2024-02-15T01:57:36;4.33;;;3.90;;
8572;SDS011;4324;42.012;24.872;2024-02-15T02:00:05;4.47;;;4.07;;
8572;SDS011;4324;42.012;24.872;2024-02-15T02:02:34;5.33;;;4.20;;
8572;SDS011;4324;42.012;24.872;2024-02-15T02:05:04;3.50;;;3.20;;
8572;SDS011;4324;42.012;24.872;2024-02-15T02:07:33;4.13;;;3.73;;
8572;SDS011;4324;42.012;24.872;2024-02-15T02:10:01;4.63;;;4.23;;
8572;SDS011;4324;42.012;24.872;2024-02-15T02:12:28;4.57;;;4.10;;
8572;SDS011;4324;42.012;24.872;2024-02-15T02:14:57;5.73;;;4.30;;
8572;SDS011;4324;42.012;24.872;2024-02-15T02:17:24;4.60;;;4.13;;
8572;SDS011;4324;42.012;24.872;2024-02-15T02:19:52;3.03;;;2.70;;
8572;SDS011;4324;42.012;24.872;2024-02-15T02:22:19;4.53;;;3.93;;
8572;SDS011;4324;42.012;24.872;2024-02-15T02:24:58;5.00;;;4.03;;
8572;SDS011;4324;42.012;24.872;2024-02-15T02:27:28;4.90;;;4.40;;
8572;SDS011;4324;42.012;24.872;2024-02-15T02:29:56;5.40;;;4.57;;
8572;SDS011;4324;42.012;24.872;2024-02-15T02:32:24;4.23;;;3.83;;
8572;SDS011;4324;42.012;24.872;2024-02-15T02:34:52;4.07;;;3.67;;
8572;SDS011;4324;42.012;24.872;2024-02-15T02:37:22;4.30;;;3.10;;
8572;SDS011;4324;42.012;24.872;2024-02-15T02:39:50;4.73;;;3.87;;
8572;SDS011;4324;42.012;24.872;2024-02-15T02:42:18;5.23;;;3.63;;
8572;SDS011;4324;42.012;24.872;2024-02-15T02:44:46;4.80;;;4.10;;
8572;SDS011;4324;42.012;24.872;2024-02-15T02:47:13;5.70;;;4.37;;
8572;SDS011;4324;42.012;24.872;2024-02-15T02:49:40;4.90;;;4.40;;
8572;SDS011;4324;42.012;24.872;2024-02-15T02:52:08;5.27;;;4.77;;
8572;SDS011;4324;42.012;24.872;2024-02-15T02:54:35;4.90;;;4.40;;
8572;SDS011;4324;42.012;24.872;2024-02-15T02:57:03;4.63;;;4.23;;
8572;SDS011;4324;42.012;24.872;2024-02-15T02:59:34;4.40;;;4.00;;
8572;SDS011;4324;42.012;24.872;2024-02-15T03:02:01;6.90;;;4.47;;
8572;SDS011;4324;42.012;24.872;2024-02-15T03:04:28;4.73;;;4.33;;
8572;SDS011;4324;42.012;24.872;2024-02-15T03:06:56;4.30;;;3.90;;
8572;SDS011;4324;42.012;24.872;2024-02-15T03:09:23;4.97;;;3.80;;
8572;SDS011;4324;42.012;24.872;2024-02-15T03:11:55;5.27;;;4.07;;
8572;SDS011;4324;42.012;24.872;2024-02-15T03:14:23;4.70;;;4.23;;
8572;SDS011;4324;42.012;24.872;2024-02-15T03:16:52;5.30;;;4.40;;
8572;SDS011;4324;42.012;24.872;2024-02-15T03:19:22;5.93;;;4.57;;
8572;SDS011;4324;42.012;24.872;2024-02-15T03:21:49;4.40;;;4.00;;
8572;SDS011;4324;42.012;24.872;2024-02-15T03:24:18;5.60;;;4.57;;
8572;SDS011;4324;42.012;24.872;2024-02-15T03:26:54;5.07;;;4.57;;
8572;SDS011;4324;42.012;24.872;2024-02-15T03:29:21;5.17;;;4.67;;
8572;SDS011;4324;42.012;24.872;2024-02-15T03:31:48;5.37;;;4.17;;
8572;SDS011;4324;42.012;24.872;2024-02-15T03:34:16;4.00;;;3.60;;
8572;SDS011;4324;42.012;24.872;2024-02-15T03:36:46;6.10;;;4.10;;
8572;SDS011;4324;42.012;24.872;2024-02-15T03:39:16;4.37;;;3.97;;
8572;SDS011;4324;42.012;24.872;2024-02-15T03:41:44;7.43;;;4.17;;
8572;SDS011;4324;42.012;24.872;2024-02-15T03:44:11;5.00;;;4.37;;
8572;SDS011;4324;42.012;24.872;2024-02-15T03:46:38;5.43;;;4.80;;
8572;SDS011;4324;42.012;24.872;2024-02-15T03:49:05;5.07;;;4.60;;
8572;SDS011;4324;42.012;24.872;2024-02-15T03:51:34;5.70;;;4.67;;
8572;SDS011;4324;42.012;24.872;2024-02-15T03:54:02;5.40;;;4.90;;
8572;SDS011;4324;42.012;24.872;2024-02-15T03:56:29;5.63;;;4.63;;
8572;SDS011;4324;42.012;24.872;2024-02-15T03:58:57;5.13;;;4.63;;
8572;SDS011;4324;42.012;24.872;2024-02-15T04:01:25;5.70;;;4.57;;
8572;SDS011;4324;42.012;24.872;2024-02-15T04:03:53;5.30;;;4.80;;
8572;SDS011;4324;42.012;24.872;2024-02-15T04:06:20;4.57;;;4.10;;
8572;SDS011;4324;42.012;24.872;2024-02-15T04:08:51;6.10;;;5.00;;
8572;SDS011;4324;42.012;24.872;2024-02-15T04:11:18;5.27;;;4.10;;
8572;SDS011;4324;42.012;24.872;2024-02-15T04:13:46;4.93;;;4.40;;
8572;SDS011;4324;42.012;24.872;2024-02-15T04:16:13;4.97;;;4.30;;
8572;SDS011;4324;42.012;24.872;2024-02-15T04:18:40;6.70;;;4.57;;
8572;SDS011;4324;42.012;24.872;2024-02-15T04:21:07;5.03;;;4.47;;
8572;SDS011;4324;42.012;24.872;2024-02-15T04:23:34;7.23;;;4.27;;
8572;SDS011;4324;42.012;24.872;2024-02-15T04:26:02;5.70;;;4.73;;
8572;SDS011;4324;42.012;24.872;2024-02-15T04:28:30;5.97;;;4.50;;
8572;SDS011;4324;42.012;24.872;2024-02-15T04:30:58;5.47;;;4.60;;
8572;SDS011;4324;42.012;24.872;2024-02-15T04:33:25;6.33;;;5.00;;
8572;SDS011;4324;42.012;24.872;2024-02-15T04:35:52;5.53;;;4.50;;
8572;SDS011;4324;42.012;24.872;2024-02-15T04:38:19;10.17;;;5.90;;
8572;SDS011;4324;42.012;24.872;2024-02-15T04:40:46;6.23;;;4.97;;
8572;SDS011;4324;42.012;24.872;2024-02-15T04:43:15;5.20;;;4.60;;
8572;SDS011;4324;42.012;24.872;2024-02-15T04:45:43;4.80;;;4.30;;
8572;SDS011;4324;42.012;24.872;2024-02-15T04:48:14;5.30;;;4.70;;
8572;SDS011;4324;42.012;24.872;2024-02-15T04:50:43;5.93;;;4.87;;
8572;SDS011;4324;42.012;24.872;2024-02-15T04:53:10;8.63;;;6.40;;
8572;SDS011;4324;42.012;24.872;2024-02-15T04:55:37;10.80;;;7.23;;
8572;SDS011;4324;42.012;24.872;2024-02-15T04:58:05;6.57;;;5.87;;
8572;SDS011;4324;42.012;24.872;2024-02-15T05:00:34;6.50;;;5.47;;
8572;SDS011;4324;42.012;24.872;2024-02-15T05:03:02;9.50;;;7.73;;
8572;SDS011;4324;42.012;24.872;2024-02-15T05:05:29;12.47;;;6.57;;
8572;SDS011;4324;42.012;24.872;2024-02-15T05:07:56;6.50;;;5.70;;
8572;SDS011;4324;42.012;24.872;2024-02-15T05:10:26;10.90;;;7.83;;
8572;SDS011;4324;42.012;24.872;2024-02-15T05:12:53;9.50;;;7.60;;
8572;SDS011;4324;42.012;24.872;2024-02-15T05:15:21;7.40;;;5.57;;
8572;SDS011;4324;42.012;24.872;2024-02-15T05:17:51;9.67;;;6.83;;
8572;SDS011;4324;42.012;24.872;2024-02-15T05:20:19;10.43;;;7.13;;
8572;SDS011;4324;42.012;24.872;2024-02-15T05:22:47;8.17;;;6.10;;
8572;SDS011;4324;42.012;24.872;2024-02-15T05:25:14;8.40;;;5.90;;
8572;SDS011;4324;42.012;24.872;2024-02-15T05:27:47;6.13;;;5.53;;
8572;SDS011;4324;42.012;24.872;2024-02-15T05:30:14;7.07;;;5.60;;
8572;SDS011;4324;42.012;24.872;2024-02-15T05:32:42;9.50;;;6.40;;
8572;SDS011;4324;42.012;24.872;2024-02-15T05:35:12;6.63;;;4.60;;
8572;SDS011;4324;42.012;24.872;2024-02-15T05:37:41;9.90;;;8.60;;
8572;SDS011;4324;42.012;24.872;2024-02-15T05:40:08;8.47;;;6.00;;
8572;SDS011;4324;42.012;24.872;2024-02-15T05:42:41;7.73;;;6.30;;
8572;SDS011;4324;42.012;24.872;2024-02-15T05:45:29;6.90;;;5.20;;
8572;SDS011;4324;42.012;24.872;2024-02-15T05:48:03;7.07;;;5.23;;
8572;SDS011;4324;42.012;24.872;2024-02-15T05:50:35;8.73;;;5.73;;
8572;SDS011;4324;42.012;24.872;2024-02-15T05:53:03;5.40;;;4.57;;
8572;SDS011;4324;42.012;24.872;2024-02-15T05:55:31;6.87;;;5.03;;
8572;SDS011;4324;42.012;24.872;2024-02-15T05:58:01;5.97;;;4.93;;
8572;SDS011;4324;42.012;24.872;2024-02-15T06:00:29;7.77;;;5.87;;
8572;SDS011;4324;42.012;24.872;2024-02-15T06:02:56;5.43;;;4.80;;
8572;SDS011;4324;42.012;24.872;2024-02-15T06:05:24;5.43;;;4.93;;
8572;SDS011;4324;42.012;24.872;2024-02-15T06:07:52;6.53;;;5.40;;
8572;SDS011;4324;42.012;24.872;2024-02-15T06:10:19;6.13;;;5.40;;
8572;SDS011;4324;42.012;24.872;2024-02-15T06:12:47;7.60;;;6.00;;
8572;SDS011;4324;42.012;24.872;2024-02-15T06:18:13;5.00;;;3.93;;
8572;SDS011;4324;42.012;24.872;2024-02-15T06:20:42;5.77;;;5.23;;
8572;SDS011;4324;42.012;24.872;2024-02-15T06:23:13;8.57;;;5.50;;
8572;SDS011;4324;42.012;24.872;2024-02-15T06:25:40;22.03;;;11.50;;
8572;SDS011;4324;42.012;24.872;2024-02-15T06:28:07;11.17;;;7.47;;
8572;SDS011;4324;42.012;24.872;2024-02-15T06:30:45;6.37;;;5.13;;
8572;SDS011;4324;42.012;24.872;2024-02-15T06:33:30;7.07;;;5.80;;
8572;SDS011;4324;42.012;24.872;2024-02-15T06:36:14;6.43;;;5.83;;
8572;SDS011;4324;42.012;24.872;2024-02-15T06:39:00;9.53;;;6.43;;
8572;SDS011;4324;42.012;24.872;2024-02-15T06:41:49;8.43;;;6.60;;
8572;SDS011;4324;42.012;24.872;2024-02-15T06:44:17;9.43;;;6.20;;
8572;SDS011;4324;42.012;24.872;2024-02-15T06:46:45;8.80;;;6.57;;
8572;SDS011;4324;42.012;24.872;2024-02-15T06:49:12;7.27;;;6.17;;
8572;SDS011;4324;42.012;24.872;2024-02-15T06:51:39;12.13;;;7.53;;
8572;SDS011;4324;42.012;24.872;2024-02-15T06:54:08;9.43;;;6.40;;
8572;SDS011;4324;42.012;24.872;2024-02-15T06:56:36;5.07;;;4.60;;
8572;SDS011;4324;42.012;24.872;2024-02-15T06:59:04;6.83;;;5.60;;
8572;SDS011;4324;42.012;24.872;2024-02-15T07:01:32;7.50;;;5.87;;
8572;SDS011;4324;42.012;24.872;2024-02-15T07:04:00;7.07;;;6.07;;
8572;SDS011;4324;42.012;24.872;2024-02-15T07:06:28;6.60;;;5.97;;
8572;SDS011;4324;42.012;24.872;2024-02-15T07:08:57;7.60;;;5.67;;
8572;SDS011;4324;42.012;24.872;2024-02-15T07:11:26;7.03;;;5.60;;
8572;SDS011;4324;42.012;24.872;2024-02-15T07:13:53;5.80;;;5.20;;
8572;SDS011;4324;42.012;24.872;2024-02-15T07:16:21;6.90;;;5.30;;
8572;SDS011;4324;42.012;24.872;2024-02-15T07:18:49;7.20;;;5.77;;
8572;SDS011;4324;42.012;24.872;2024-02-15T07:21:16;7.83;;;4.93;;
8572;SDS011;4324;42.012;24.872;2024-02-15T07:26:31;6.97;;;5.27;;
8572;SDS011;4324;42.012;24.872;2024-02-15T07:29:01;5.57;;;5.07;;
8572;SDS011;4324;42.012;24.872;2024-02-15T07:31:31;6.57;;;5.90;;
8572;SDS011;4324;42.012;24.872;2024-02-15T07:33:59;5.70;;;5.20;;
8572;SDS011;4324;42.012;24.872;2024-02-15T07:36:27;6.20;;;5.03;;
8572;SDS011;4324;42.012;24.872;2024-02-15T07:38:54;6.63;;;5.87;;
8572;SDS011;4324;42.012;24.872;2024-02-15T07:41:26;6.13;;;5.60;;
8572;SDS011;4324;42.012;24.872;2024-02-15T07:43:55;7.60;;;5.77;;
8572;SDS011;4324;42.012;24.872;2024-02-15T07:46:24;8.03;;;6.63;;
8572;SDS011;4324;42.012;24.872;2024-02-15T07:48:51;6.60;;;5.43;;
8572;SDS011;4324;42.012;24.872;2024-02-15T07:51:19;6.30;;;4.30;;
8572;SDS011;4324;42.012;24.872;2024-02-15T07:53:48;6.57;;;5.53;;
8572;SDS011;4324;42.012;24.872;2024-02-15T07:56:16;6.97;;;5.67;;
8572;SDS011;4324;42.012;24.872;2024-02-15T07:58:45;8.00;;;5.63;;
8572;SDS011;4324;42.012;24.872;2024-02-15T08:01:18;5.87;;;5.13;;
8572;SDS011;4324;42.012;24.872;2024-02-15T08:03:47;6.73;;;6.03;;
8572;SDS011;4324;42.012;24.872;2024-02-15T08:06:16;8.17;;;5.90;;
8572;SDS011;4324;42.012;24.872;2024-02-15T08:08:44;7.80;;;5.07;;
8572;SDS011;4324;42.012;24.872;2024-02-15T08:11:12;7.17;;;6.10;;
8572;SDS011;4324;42.012;24.872;2024-02-15T08:13:50;8.23;;;6.33;;
8572;SDS011;4324;42.012;24.872;2024-02-15T08:16:21;7.40;;;5.23;;
8572;SDS011;4324;42.012;24.872;2024-02-15T08:18:48;8.37;;;6.27;;
8572;SDS011;4324;42.012;24.872;2024-02-15T08:21:18;5.70;;;5.03;;
8572;SDS011;4324;42.012;24.872;2024-02-15T08:23:51;6.30;;;5.70;;
8572;SDS011;4324;42.012;24.872;2024-02-15T08:26:19;6.73;;;5.97;;
8572;SDS011;4324;42.012;24.872;2024-02-15T08:28:46;6.60;;;5.80;;
8572;SDS011;4324;42.012;24.872;2024-02-15T08:31:13;7.60;;;6.30;;
8572;SDS011;4324;42.012;24.872;2024-02-15T08:33:42;7.13;;;5.40;;
8572;SDS011;4324;42.012;24.872;2024-02-15T08:36:13;6.33;;;5.47;;
8572;SDS011;4324;42.012;24.872;2024-02-15T08:38:47;6.27;;;5.53;;
8572;SDS011;4324;42.012;24.872;2024-02-15T08:41:16;7.23;;;6.53;;
8572;SDS011;4324;42.012;24.872;2024-02-15T08:43:46;8.33;;;7.33;;
8572;SDS011;4324;42.012;24.872;2024-02-15T08:46:13;6.70;;;5.83;;
8572;SDS011;4324;42.012;24.872;2024-02-15T08:48:42;8.03;;;7.17;;
8572;SDS011;4324;42.012;24.872;2024-02-15T08:51:10;9.63;;;6.33;;
8572;SDS011;4324;42.012;24.872;2024-02-15T08:53:42;7.20;;;5.60;;
8572;SDS011;4324;42.012;24.872;2024-02-15T08:56:13;8.90;;;6.30;;
8572;SDS011;4324;42.012;24.872;2024-02-15T08:58:44;7.90;;;6.93;;
8572;SDS011;4324;42.012;24.872;2024-02-15T09:01:19;6.90;;;5.50;;
8572;SDS011;4324;42.012;24.872;2024-02-15T09:03:57;7.10;;;5.53;;
8572;SDS011;4324;42.012;24.872;2024-02-15T09:06:26;6.33;;;5.30;;
8572;SDS011;4324;42.012;24.872;2024-02-15T09:09:16;7.00;;;5.40;;
8572;SDS011;4324;42.012;24.872;2024-02-15T09:11:47;8.80;;;5.63;;
8572;SDS011;4324;42.012;24.872;2024-02-15T09:14:31;6.93;;;5.37;;
8572;SDS011;4324;42.012;24.872;2024-02-15T09:17:11;6.60;;;5.30;;
8572;SDS011;4324;42.012;24.872;2024-02-15T09:19:43;6.27;;;5.43;;
8572;SDS011;4324;42.012;24.872;2024-02-15T09:22:14;6.47;;;5.83;;
8572;SDS011;4324;42.012;24.872;2024-02-15T09:24:41;8.60;;;7.27;;
8572;SDS011;4324;42.012;24.872;2024-02-15T09:27:14;5.60;;;5.00;;
8572;SDS011;4324;42.012;24.872;2024-02-15T09:29:42;7.30;;;5.43;;
8572;SDS011;4324;42.012;24.872;2024-02-15T09:32:09;8.43;;;6.40;;
8572;SDS011;4324;42.012;24.872;2024-02-15T09:34:37;4.93;;;4.40;;
8572;SDS011;4324;42.012;24.872;2024-02-15T09:37:07;5.97;;;5.40;;
8572;SDS011;4324;42.012;24.872;2024-02-15T09:39:34;5.73;;;5.20;;
8572;SDS011;4324;42.012;24.872;2024-02-15T09:42:04;6.27;;;5.67;;
8572;SDS011;4324;42.012;24.872;2024-02-15T09:44:45;6.57;;;5.67;;
8572;SDS011;4324;42.012;24.872;2024-02-15T09:47:12;6.93;;;5.50;;
8572;SDS011;4324;42.012;24.872;2024-02-15T09:49:53;6.80;;;6.07;;
8572;SDS011;4324;42.012;24.872;2024-02-15T09:52:23;5.97;;;5.37;;
8572;SDS011;4324;42.012;24.872;2024-02-15T09:54:50;5.90;;;4.90;;
8572;SDS011;4324;42.012;24.872;2024-02-15T09:57:20;6.83;;;4.93;;
8572;SDS011;4324;42.012;24.872;2024-02-15T09:59:48;5.00;;;4.40;;
8572;SDS011;4324;42.012;24.872;2024-02-15T10:02:15;4.97;;;4.30;;
8572;SDS011;4324;42.012;24.872;2024-02-15T10:04:50;5.40;;;4.87;;
8572;SDS011;4324;42.012;24.872;2024-02-15T10:07:28;4.90;;;4.40;;
8572;SDS011;4324;42.012;24.872;2024-02-15T10:09:56;5.93;;;5.30;;
8572;SDS011;4324;42.012;24.872;2024-02-15T10:12:41;5.97;;;5.37;;
8572;SDS011;4324;42.012;24.872;2024-02-15T10:15:10;5.40;;;4.90;;
8572;SDS011;4324;42.012;24.872;2024-02-15T10:17:37;5.60;;;5.10;;
8572;SDS011;4324;42.012;24.872;2024-02-15T10:20:05;5.93;;;4.60;;
8572;SDS011;4324;42.012;24.872;2024-02-15T10:22:44;4.43;;;4.03;;
8572;SDS011;4324;42.012;24.872;2024-02-15T10:25:11;5.23;;;4.70;;
8572;SDS011;4324;42.012;24.872;2024-02-15T10:27:39;7.67;;;5.20;;
8572;SDS011;4324;42.012;24.872;2024-02-15T10:30:16;6.97;;;4.43;;
8572;SDS011;4324;42.012;24.872;2024-02-15T10:32:45;7.27;;;6.37;;
8572;SDS011;4324;42.012;24.872;2024-02-15T10:35:22;5.33;;;4.47;;
8572;SDS011;4324;42.012;24.872;2024-02-15T10:38:04;4.87;;;4.47;;
8572;SDS011;4324;42.012;24.872;2024-02-15T10:40:39;4.13;;;3.73;;
8572;SDS011;4324;42.012;24.872;2024-02-15T10:43:08;7.03;;;5.33;;
8572;SDS011;4324;42.012;24.872;2024-02-15T10:45:40;5.57;;;5.07;;
8572;SDS011;4324;42.012;24.872;2024-02-15T10:48:19;8.47;;;6.57;;
8572;SDS011;4324;42.012;24.872;2024-02-15T10:51:01;7.60;;;5.97;;
8572;SDS011;4324;42.012;24.872;2024-02-15T10:53:36;6.50;;;5.67;;
8572;SDS011;4324;42.012;24.872;2024-02-15T10:56:12;5.73;;;5.13;;
8572;SDS011;4324;42.012;24.872;2024-02-15T10:58:49;9.13;;;6.40;;
8572;SDS011;4324;42.012;24.872;2024-02-15T11:01:18;5.00;;;4.33;;
8572;SDS011;4324;42.012;24.872;2024-02-15T11:03:51;7.70;;;5.37;;
8572;SDS011;4324;42.012;24.872;2024-02-15T11:06:25;8.40;;;5.57;;
8572;SDS011;4324;42.012;24.872;2024-02-15T11:08:56;7.87;;;4.93;;
8572;SDS011;4324;42.012;24.872;2024-02-15T11:11:31;7.50;;;5.30;;
8572;SDS011;4324;42.012;24.872;2024-02-15T11:16:52;4.80;;;4.30;;
8572;SDS011;4324;42.012;24.872;2024-02-15T11:22:13;4.37;;;3.97;;
8572;SDS011;4324;42.012;24.872;2024-02-15T11:24:46;4.93;;;4.10;;
8572;SDS011;4324;42.012;24.872;2024-02-15T11:27:25;4.70;;;4.20;;
8572;SDS011;4324;42.012;24.872;2024-02-15T11:29:57;5.80;;;4.23;;
8572;SDS011;4324;42.012;24.872;2024-02-15T11:33:05;4.43;;;4.03;;
8572;SDS011;4324;42.012;24.872;2024-02-15T11:36:02;6.00;;;5.40;;
8572;SDS011;4324;42.012;24.872;2024-02-15T11:38:34;5.40;;;4.90;;
8572;SDS011;4324;42.012;24.872;2024-02-15T11:41:06;5.97;;;4.77;;
8572;SDS011;4324;42.012;24.872;2024-02-15T11:46:24;4.47;;;4.07;;
8572;SDS011;4324;42.012;24.872;2024-02-15T11:48:56;5.30;;;4.80;;
8572;SDS011;4324;42.012;24.872;2024-02-15T11:51:28;4.37;;;4.00;;
8572;SDS011;4324;42.012;24.872;2024-02-15T11:54:00;5.00;;;4.53;;
8572;SDS011;4324;42.012;24.872;2024-02-15T11:56:33;3.90;;;3.60;;
8572;SDS011;4324;42.012;24.872;2024-02-15T11:59:17;5.13;;;4.43;;
8572;SDS011;4324;42.012;24.872;2024-02-15T12:02:03;7.83;;;4.87;;
8572;SDS011;4324;42.012;24.872;2024-02-15T12:04:57;4.50;;;4.10;;
8572;SDS011;4324;42.012;24.872;2024-02-15T12:07:51;4.77;;;4.37;;
8572;SDS011;4324;42.012;24.872;2024-02-15T12:10:39;5.87;;;5.00;;
8572;SDS011;4324;42.012;24.872;2024-02-15T12:13:25;4.83;;;3.93;;
8572;SDS011;4324;42.012;24.872;2024-02-15T12:16:09;6.63;;;6.07;;
8572;SDS011;4324;42.012;24.872;2024-02-15T12:18:54;4.53;;;4.03;;
8572;SDS011;4324;42.012;24.872;2024-02-15T12:21:23;6.23;;;4.27;;
8572;SDS011;4324;42.012;24.872;2024-02-15T12:23:55;5.13;;;4.63;;
8572;SDS011;4324;42.012;24.872;2024-02-15T12:26:25;5.57;;;5.07;;
8572;SDS011;4324;42.012;24.872;2024-02-15T12:28:54;4.80;;;4.30;;
8572;SDS011;4324;42.012;24.872;2024-02-15T12:31:23;4.90;;;4.40;;
8572;SDS011;4324;42.012;24.872;2024-02-15T12:34:01;4.20;;;3.83;;
8572;SDS011;4324;42.012;24.872;2024-02-15T12:36:31;10.77;;;5.73;;
8572;SDS011;4324;42.012;24.872;2024-02-15T12:38:59;5.83;;;5.27;;
8572;SDS011;4324;42.012;24.872;2024-02-15T12:41:27;4.43;;;4.07;;
8572;SDS011;4324;42.012;24.872;2024-02-15T12:43:57;6.00;;;5.40;;
8572;SDS011;4324;42.012;24.872;2024-02-15T12:46:29;6.80;;;5.50;;
8572;SDS011;4324;42.012;24.872;2024-02-15T12:49:07;8.00;;;7.10;;
8572;SDS011;4324;42.012;24.872;2024-02-15T12:51:38;5.97;;;5.03;;
8572;SDS011;4324;42.012;24.872;2024-02-15T12:54:09;4.60;;;4.20;;
8572;SDS011;4324;42.012;24.872;2024-02-15T12:56:37;4.17;;;3.77;;
8572;SDS011;4324;42.012;24.872;2024-02-15T12:59:06;7.73;;;4.20;;
8572;SDS011;4324;42.012;24.872;2024-02-15T13:01:37;4.30;;;3.90;;
8572;SDS011;4324;42.012;24.872;2024-02-15T13:04:04;4.60;;;4.20;;
8572;SDS011;4324;42.012;24.872;2024-02-15T13:06:33;4.37;;;3.80;;
8572;SDS011;4324;42.012;24.872;2024-02-15T13:09:02;6.93;;;5.43;;
8572;SDS011;4324;42.012;24.872;2024-02-15T13:11:31;6.17;;;4.50;;
8572;SDS011;4324;42.012;24.872;2024-02-15T13:14:00;5.20;;;4.70;;
8572;SDS011;4324;42.012;24.872;2024-02-15T13:16:31;8.60;;;7.70;;
8572;SDS011;4324;42.012;24.872;2024-02-15T13:18:59;4.50;;;3.53;;
8572;SDS011;4324;42.012;24.872;2024-02-15T13:21:32;4.10;;;3.70;;
8572;SDS011;4324;42.012;24.872;2024-02-15T13:24:00;5.90;;;4.17;;
8572;SDS011;4324;42.012;24.872;2024-02-15T13:26:30;4.17;;;3.77;;
8572;SDS011;4324;42.012;24.872;2024-02-15T13:28:59;5.10;;;3.90;;
8572;SDS011;4324;42.012;24.872;2024-02-15T13:31:26;5.30;;;3.63;;
8572;SDS011;4324;42.012;24.872;2024-02-15T13:33:54;5.27;;;3.93;;
8572;SDS011;4324;42.012;24.872;2024-02-15T13:36:21;4.30;;;3.57;;
8572;SDS011;4324;42.012;24.872;2024-02-15T13:38:49;6.37;;;4.83;;
8572;SDS011;4324;42.012;24.872;2024-02-15T13:41:16;4.50;;;4.10;;
8572;SDS011;4324;42.012;24.872;2024-02-15T13:43:44;4.97;;;4.40;;
8572;SDS011;4324;42.012;24.872;2024-02-15T13:46:13;4.93;;;4.43;;
8572;SDS011;4324;42.012;24.872;2024-02-15T13:48:42;7.67;;;4.10;;
8572;SDS011;4324;42.012;24.872;2024-02-15T13:51:10;4.80;;;4.40;;
8572;SDS011;4324;42.012;24.872;2024-02-15T13:53:38;6.30;;;4.37;;
8572;SDS011;4324;42.012;24.872;2024-02-15T13:56:05;11.43;;;8.07;;
8572;SDS011;4324;42.012;24.872;2024-02-15T13:58:35;4.80;;;4.40;;
8572;SDS011;4324;42.012;24.872;2024-02-15T14:01:02;4.40;;;3.90;;
8572;SDS011;4324;42.012;24.872;2024-02-15T14:03:31;4.17;;;3.80;;
8572;SDS011;4324;42.012;24.872;2024-02-15T14:06:07;4.97;;;4.23;;
8572;SDS011;4324;42.012;24.872;2024-02-15T14:08:36;5.43;;;4.30;;
8572;SDS011;4324;42.012;24.872;2024-02-15T14:11:22;4.70;;;4.30;;
8572;SDS011;4324;42.012;24.872;2024-02-15T14:13:50;4.60;;;3.90;;
8572;SDS011;4324;42.012;24.872;2024-02-15T14:16:25;5.97;;;5.37;;
8572;SDS011;4324;42.012;24.872;2024-02-15T14:18:57;4.40;;;4.00;;
8572;SDS011;4324;42.012;24.872;2024-02-15T14:21:24;5.63;;;4.50;;
8572;SDS011;4324;42.012;24.872;2024-02-15T14:23:56;4.77;;;4.27;;
8572;SDS011;4324;42.012;24.872;2024-02-15T14:26:24;6.17;;;4.37;;
8572;SDS011;4324;42.012;24.872;2024-02-15T14:28:57;4.53;;;4.13;;
8572;SDS011;4324;42.012;24.872;2024-02-15T14:31:27;4.87;;;4.40;;
8572;SDS011;4324;42.012;24.872;2024-02-15T14:34:11;4.20;;;3.87;;
8572;SDS011;4324;42.012;24.872;2024-02-15T14:36:39;4.00;;;3.60;;
8572;SDS011;4324;42.012;24.872;2024-02-15T14:39:09;4.40;;;4.00;;
8572;SDS011;4324;42.012;24.872;2024-02-15T14:41:38;5.73;;;4.70;;
8572;SDS011;4324;42.012;24.872;2024-02-15T14:44:05;10.17;;;5.17;;
8572;SDS011;4324;42.012;24.872;2024-02-15T14:46:37;5.90;;;5.40;;
8572;SDS011;4324;42.012;24.872;2024-02-15T14:49:06;6.17;;;5.47;;
8572;SDS011;4324;42.012;24.872;2024-02-15T14:51:34;8.73;;;6.67;;
8572;SDS011;4324;42.012;24.872;2024-02-15T14:54:05;9.43;;;8.43;;
8572;SDS011;4324;42.012;24.872;2024-02-15T14:56:34;9.57;;;8.47;;
8572;SDS011;4324;42.012;24.872;2024-02-15T14:59:03;10.13;;;8.70;;
8572;SDS011;4324;42.012;24.872;2024-02-15T15:01:31;8.07;;;7.27;;
8572;SDS011;4324;42.012;24.872;2024-02-15T15:03:58;7.90;;;7.13;;
8572;SDS011;4324;42.012;24.872;2024-02-15T15:06:30;9.37;;;7.77;;
8572;SDS011;4324;42.012;24.872;2024-02-15T15:09:15;11.90;;;9.20;;
8572;SDS011;4324;42.012;24.872;2024-02-15T15:12:02;10.23;;;8.87;;
8572;SDS011;4324;42.012;24.872;2024-02-15T15:14:46;9.60;;;8.70;;
8572;SDS011;4324;42.012;24.872;2024-02-15T15:17:13;8.80;;;8.00;;
8572;SDS011;4324;42.012;24.872;2024-02-15T15:19:42;12.47;;;9.17;;
8572;SDS011;4324;42.012;24.872;2024-02-15T15:22:09;10.10;;;9.20;;
8572;SDS011;4324;42.012;24.872;2024-02-15T15:24:36;10.17;;;8.83;;
8572;SDS011;4324;42.012;24.872;2024-02-15T15:27:05;10.93;;;9.83;;
8572;SDS011;4324;42.012;24.872;2024-02-15T15:29:33;13.87;;;12.33;;
8572;SDS011;4324;42.012;24.872;2024-02-15T15:32:00;16.40;;;14.67;;
8572;SDS011;4324;42.012;24.872;2024-02-15T15:34:37;12.77;;;11.47;;